Time;durP1;ratioP1;P1;durP2;ratioP2;P2;SDS_P1;SDS_P2;PMS_P1;PMS_P2;Temp;Humidity;BMP_temperature;BMP_pressure;BME280_temperature;BME280_humidity;BME280_pressure;Samples;Min_cycle;Max_cycle;Signal;HPM_P1;HPM_P2
2023/12/29 00:00:25;;;;;;;14.03;2.40;;;;;;;-145.18;100.00;46853.78;5042825;28;20053;-89
2023/12/29 00:02:51;;;;;;;12.70;2.60;;;;;;;-145.18;100.00;46853.78;5055548;28;20021;-89
2023/12/29 00:05:16;;;;;;;15.77;2.67;;;;;;;-145.18;100.00;46844.00;5054795;28;20462;-89
2023/12/29 00:07:42;;;;;;;10.93;1.60;;;;;;;-145.18;100.00;46847.91;5045112;28;20060;-89
2023/12/29 00:10:08;;;;;;;14.60;1.93;;;;;;;-145.18;100.00;46840.09;5050725;28;20364;-89
2023/12/29 00:12:34;;;;;;;10.13;1.87;;;;;;;-145.18;100.00;46840.09;5053021;28;20108;-88
2023/12/29 00:14:59;;;;;;;9.27;2.00;;;;;;;-145.18;100.00;46838.16;5051898;28;20111;-89
2023/12/29 00:17:25;;;;;;;11.60;2.90;;;;;;;-145.18;100.00;46832.28;5052039;28;20025;-80
2023/12/29 00:19:50;;;;;;;12.27;2.10;;;;;;;-145.18;100.00;46828.38;5051859;28;20033;-80
2023/12/29 00:22:16;;;;;;;16.07;2.23;;;;;;;-145.18;100.00;46826.44;5052070;28;20032;-80
2023/12/29 00:24:41;;;;;;;12.23;2.53;;;;;;;-145.18;100.00;46824.47;5053404;28;20056;-80
2023/12/29 00:27:06;;;;;;;14.67;2.60;;;;;;;-145.18;100.00;46822.53;5051866;28;20025;-80
2023/12/29 00:29:32;;;;;;;13.40;1.90;;;;;;;-145.18;100.00;46828.38;5051769;28;20091;-80
2023/12/29 00:32:00;;;;;;;14.80;2.33;;;;;;;-145.18;100.00;46830.34;5053100;28;20028;-79
2023/12/29 00:34:25;;;;;;;11.43;2.00;;;;;;;-145.18;100.00;46830.34;5052694;28;20516;-80
2023/12/29 00:36:51;;;;;;;17.30;2.23;;;;;;;-145.18;100.00;46828.38;5040385;28;20033;-80
2023/12/29 00:39:16;;;;;;;7.40;1.80;;;;;;;-145.18;100.00;46826.44;5044153;28;20031;-79
2023/12/29 00:41:42;;;;;;;12.97;2.07;;;;;;;-145.18;100.00;46830.34;5047139;28;20102;-80
2023/12/29 00:44:08;;;;;;;19.40;2.97;;;;;;;-145.18;100.00;46830.34;5048334;28;20382;-80
2023/12/29 00:46:33;;;;;;;13.13;2.03;;;;;;;-145.18;100.00;46830.34;5048663;28;20497;-80
2023/12/29 00:48:59;;;;;;;12.27;3.20;;;;;;;-145.18;100.00;46838.16;5049497;28;20066;-79
2023/12/29 00:51:24;;;;;;;11.30;1.50;;;;;;;-145.18;100.00;46842.06;5050098;28;20140;-80
2023/12/29 00:53:49;;;;;;;13.50;2.47;;;;;;;-145.18;100.00;46845.97;5052249;28;20414;-79
2023/12/29 00:56:15;;;;;;;11.23;1.50;;;;;;;-145.18;100.00;46844.00;5066191;28;20029;-80
2023/12/29 00:58:40;;;;;;;12.73;2.13;;;;;;;-145.18;100.00;46849.88;5050099;28;20550;-80
2023/12/29 01:01:11;;;;;;;13.73;2.80;;;;;;;-145.18;100.00;46847.91;5050454;28;20036;-80
2023/12/29 01:03:37;;;;;;;10.97;1.90;;;;;;;-145.18;100.00;46847.91;5049385;28;20247;-80
2023/12/29 01:06:02;;;;;;;13.03;1.97;;;;;;;-145.18;100.00;46851.81;5039816;28;20057;-79
2023/12/29 01:08:28;;;;;;;7.97;1.90;;;;;;;-145.18;100.00;46845.97;5048031;28;20478;-80
2023/12/29 01:10:53;;;;;;;10.83;1.50;;;;;;;-145.18;100.00;46855.72;5052267;28;20036;-80
2023/12/29 01:13:19;;;;;;;15.73;2.77;;;;;;;-145.18;100.00;46851.81;5047032;28;20072;-79
2023/12/29 01:15:45;;;;;;;14.43;1.87;;;;;;;-145.18;100.00;46849.88;5052844;28;20103;-80
2023/12/29 01:18:11;;;;;;;16.10;3.13;;;;;;;-145.18;100.00;46857.69;5033512;28;20037;-79
2023/12/29 01:20:39;;;;;;;9.83;1.97;;;;;;;-145.18;100.00;46851.81;5052847;28;20029;-79
2023/12/29 01:23:04;;;;;;;11.60;2.53;;;;;;;-145.18;100.00;46851.81;5050272;28;20037;-80
2023/12/29 01:25:29;;;;;;;9.37;1.23;;;;;;;-145.18;100.00;46851.81;5050394;28;20037;-80
2023/12/29 01:27:55;;;;;;;8.00;1.83;;;;;;;-145.18;100.00;46849.88;5051881;28;20040;-89
2023/12/29 01:30:20;;;;;;;10.00;1.57;;;;;;;-145.18;100.00;46855.72;5054613;28;20104;-90
2023/12/29 01:32:46;;;;;;;5.87;1.87;;;;;;;-145.18;100.00;46859.63;5052776;28;20032;-91
2023/12/29 01:35:11;;;;;;;7.47;1.93;;;;;;;-145.18;100.00;46859.63;5040550;28;20057;-90
2023/12/29 01:37:36;;;;;;;10.87;1.50;;;;;;;-145.18;100.00;46865.50;5046688;28;20029;-90
2023/12/29 01:40:02;;;;;;;9.53;2.40;;;;;;;-145.18;100.00;46873.31;5051063;28;20067;-89
2023/12/29 01:42:28;;;;;;;14.60;2.00;;;;;;;-145.18;100.00;46877.22;5048112;28;20020;-88
2023/12/29 01:44:54;;;;;;;10.27;2.60;;;;;;;-145.18;100.00;46879.19;5054784;28;20037;-89
2023/12/29 01:47:20;;;;;;;9.77;1.83;;;;;;;-145.18;100.00;46887.00;5046468;28;20031;-89
2023/12/29 01:49:48;;;;;;;7.07;2.10;;;;;;;-145.18;100.00;46887.00;5053007;28;20120;-88
2023/12/29 01:52:15;;;;;;;9.00;2.50;;;;;;;-145.18;100.00;46890.91;5030091;28;20382;-90
2023/12/29 01:54:42;;;;;;;6.63;2.00;;;;;;;-145.18;100.00;46894.81;5053710;28;20021;-89
2023/12/29 01:57:08;;;;;;;9.87;2.57;;;;;;;-145.18;100.00;46894.81;5036205;28;20029;-89
2023/12/29 01:59:35;;;;;;;15.70;2.57;;;;;;;-145.18;100.00;46900.66;5048354;28;20029;-88
2023/12/29 02:02:01;;;;;;;7.33;1.67;;;;;;;-145.18;100.00;46904.56;5052018;28;20047;-89
2023/12/29 02:04:28;;;;;;;10.53;2.00;;;;;;;-145.18;100.00;46900.66;5052321;28;20059;-89
2023/12/29 02:06:54;;;;;;;19.43;2.97;;;;;;;-145.18;100.00;46908.47;5051678;28;20029;-88
2023/12/29 02:09:20;;;;;;;13.83;2.13;;;;;;;-145.18;100.00;46904.56;5052757;28;20057;-89
2023/12/29 02:11:47;;;;;;;16.47;2.77;;;;;;;-145.18;100.00;46902.63;5053706;28;20029;-89
2023/12/29 02:14:14;;;;;;;12.93;2.37;;;;;;;-145.18;100.00;46902.63;5051670;28;20029;-89
2023/12/29 02:17:08;;;;;;;12.00;2.27;;;;;;;-145.18;100.00;46904.56;5049305;28;20039;-89
2023/12/29 02:19:40;;;;;;;9.60;2.00;;;;;;;-145.18;100.00;46904.56;5036296;28;20048;-89
2023/12/29 02:22:06;;;;;;;8.70;1.73;;;;;;;-145.18;100.00;46902.63;5050550;28;20021;-89
2023/12/29 02:24:33;;;;;;;17.37;2.63;;;;;;;-145.18;100.00;46892.84;5055012;28;20087;-89
2023/12/29 02:27:08;;;;;;;14.23;2.97;;;;;;;-145.18;100.00;46890.91;5032228;28;20088;-89
2023/12/29 02:29:35;;;;;;;14.68;2.83;;;;;;;-145.18;100.00;46887.00;5047899;28;20029;-89
2023/12/29 02:32:05;;;;;;;8.97;2.40;;;;;;;-145.18;100.00;46887.00;5053611;28;20461;-89
2023/12/29 02:34:33;;;;;;;9.80;2.07;;;;;;;-145.18;100.00;46885.03;5046118;28;20094;-89
2023/12/29 02:36:59;;;;;;;14.47;2.00;;;;;;;-145.18;100.00;46883.09;5051000;28;20028;-80
2023/12/29 02:39:25;;;;;;;13.83;1.63;;;;;;;-145.18;100.00;46881.13;5047369;28;20087;-81
2023/12/29 02:41:50;;;;;;;11.93;2.77;;;;;;;-145.18;100.00;46879.19;5045102;28;20033;-81
2023/12/29 02:44:15;;;;;;;13.13;3.00;;;;;;;-145.18;100.00;46879.19;5038649;28;20029;-80
2023/12/29 02:46:41;;;;;;;13.50;2.00;;;;;;;-145.18;100.00;46879.19;5042788;28;20474;-80
2023/12/29 02:49:11;;;;;;;11.93;2.23;;;;;;;-145.18;100.00;46871.38;5049021;28;20091;-81
2023/12/29 02:51:36;;;;;;;11.93;1.97;;;;;;;-145.18;100.00;46873.31;5045414;28;20479;-81
2023/12/29 02:54:02;;;;;;;8.93;1.87;;;;;;;-145.18;100.00;46869.41;5047047;28;20029;-80
2023/12/29 02:56:28;;;;;;;12.07;2.20;;;;;;;-145.18;100.00;46869.41;5040140;28;20044;-80
2023/12/29 02:58:53;;;;;;;13.53;2.70;;;;;;;-145.18;100.00;46871.38;5042099;28;20478;-80
2023/12/29 03:01:18;;;;;;;16.63;2.23;;;;;;;-145.18;100.00;46867.44;5038929;28;20116;-79
2023/12/29 03:03:44;;;;;;;20.53;2.67;;;;;;;-145.18;100.00;46875.28;5040529;28;20107;-80
2023/12/29 03:06:09;;;;;;;12.53;2.00;;;;;;;-145.18;100.00;46867.44;5055215;28;20378;-79
2023/12/29 03:08:34;;;;;;;17.73;2.27;;;;;;;-145.18;100.00;46865.50;5040925;28;20056;-80
2023/12/29 03:11:00;;;;;;;13.33;2.00;;;;;;;-145.18;100.00;46871.38;5038525;28;20083;-80
2023/12/29 03:13:25;;;;;;;11.83;2.00;;;;;;;-145.18;100.00;46863.53;5043330;28;20040;-80
2023/12/29 03:15:51;;;;;;;16.97;2.00;;;;;;;-145.18;100.00;46863.53;5049353;28;20033;-80
2023/12/29 03:18:16;;;;;;;20.07;2.53;;;;;;;-145.18;100.00;46869.41;5040095;28;20056;-80
2023/12/29 03:20:41;;;;;;;10.23;2.10;;;;;;;-145.18;100.00;46863.53;5037962;28;20029;-80
2023/12/29 03:23:07;;;;;;;20.73;2.40;;;;;;;-145.18;100.00;46863.53;5047531;28;20482;-80
2023/12/29 03:25:32;;;;;;;17.77;3.50;;;;;;;-145.18;100.00;46865.50;5039378;28;20494;-80
2023/12/29 03:27:58;;;;;;;16.17;2.07;;;;;;;-145.18;100.00;46865.50;5040967;28;20033;-79
2023/12/29 03:30:24;;;;;;;10.53;1.87;;;;;;;-145.18;100.00;46869.41;5039354;28;20080;-80
2023/12/29 03:32:49;;;;;;;12.97;1.70;;;;;;;-145.18;100.00;46871.38;5047231;28;20033;-80
2023/12/29 03:35:16;;;;;;;14.30;2.07;;;;;;;-145.18;100.00;46871.38;5044588;28;20029;-79
2023/12/29 03:37:41;;;;;;;14.37;2.00;;;;;;;-145.18;100.00;46869.41;5054103;28;20045;-80
2023/12/29 03:40:08;;;;;;;18.17;2.10;;;;;;;-145.18;100.00;46877.22;5046857;28;20037;-79
2023/12/29 03:42:33;;;;;;;16.87;2.27;;;;;;;-145.18;100.00;46873.31;5050959;28;20037;-80
2023/12/29 03:44:58;;;;;;;13.53;2.50;;;;;;;-145.18;100.00;46875.28;5053068;28;20090;-80
2023/12/29 03:47:24;;;;;;;22.73;3.57;;;;;;;-145.18;100.00;46871.38;5047352;28;20041;-89
2023/12/29 03:49:49;;;;;;;19.27;3.10;;;;;;;-145.18;100.00;46879.19;5045682;28;20025;-88
2023/12/29 03:52:14;;;;;;;16.60;1.93;;;;;;;-145.18;100.00;46881.13;5055421;28;20112;-90
2023/12/29 03:54:40;;;;;;;9.80;1.73;;;;;;;-145.18;100.00;46877.22;5056085;28;20528;-88
2023/12/29 03:57:05;;;;;;;13.23;2.67;;;;;;;-145.18;100.00;46875.28;5047129;28;20032;-88
2023/12/29 03:59:31;;;;;;;16.47;1.70;;;;;;;-145.18;100.00;46871.38;5053966;28;20475;-88
2023/12/29 04:01:56;;;;;;;14.17;2.40;;;;;;;-145.18;100.00;46881.13;5055613;28;20519;-87
2023/12/29 04:04:21;;;;;;;18.77;2.30;;;;;;;-145.18;100.00;46879.19;5055527;28;20079;-88
2023/12/29 04:06:47;;;;;;;16.30;2.93;;;;;;;-145.18;100.00;46871.38;5054513;28;20586;-88
2023/12/29 04:09:13;;;;;;;9.93;1.90;;;;;;;-145.18;100.00;46875.28;5051565;28;20061;-87
2023/12/29 04:11:38;;;;;;;22.53;2.17;;;;;;;-145.18;100.00;46871.38;5051583;28;20029;-88
2023/12/29 04:14:03;;;;;;;11.60;2.07;;;;;;;-145.18;100.00;46873.31;5051633;28;20036;-88
2023/12/29 04:16:29;;;;;;;23.20;3.10;;;;;;;-145.18;100.00;46875.28;5054748;28;20033;-88
2023/12/29 04:18:54;;;;;;;15.30;2.93;;;;;;;-145.18;100.00;46871.38;5048477;28;20112;-88
2023/12/29 04:21:19;;;;;;;14.70;2.10;;;;;;;-145.18;100.00;46869.41;5050861;28;20477;-87
2023/12/29 04:23:45;;;;;;;13.27;2.27;;;;;;;-145.18;100.00;46871.38;5047835;28;20040;-88
2023/12/29 04:26:10;;;;;;;16.07;2.30;;;;;;;-145.18;100.00;46871.38;5054700;28;20108;-89
2023/12/29 04:28:36;;;;;;;24.00;3.47;;;;;;;-145.18;100.00;46877.22;5049427;28;20520;-89
2023/12/29 04:31:01;;;;;;;18.73;2.50;;;;;;;-145.18;100.00;46879.19;5050468;28;20072;-88
2023/12/29 04:33:27;;;;;;;17.47;2.83;;;;;;;-145.18;100.00;46879.19;5049673;28;20056;-88
2023/12/29 04:35:52;;;;;;;16.07;2.60;;;;;;;-145.18;100.00;46875.28;5070103;28;20033;-89
2023/12/29 04:38:19;;;;;;;21.57;3.20;;;;;;;-145.18;100.00;46879.19;5053652;28;20036;-87
2023/12/29 04:40:46;;;;;;;14.10;2.50;;;;;;;-145.18;100.00;46883.09;5051915;28;20033;-88
2023/12/29 04:43:12;;;;;;;23.37;2.90;;;;;;;-145.18;100.00;46883.09;5052193;28;20512;-89
2023/12/29 04:45:38;;;;;;;13.40;2.57;;;;;;;-145.18;100.00;46879.19;5052919;28;20029;-89
2023/12/29 04:48:04;;;;;;;23.03;2.67;;;;;;;-145.18;100.00;46877.22;5051568;28;20040;-88
2023/12/29 04:50:29;;;;;;;12.63;2.40;;;;;;;-145.18;100.00;46885.03;5053070;28;20398;-88
2023/12/29 04:52:55;;;;;;;13.93;2.67;;;;;;;-145.18;100.00;46885.03;5054963;28;20082;-88
2023/12/29 04:55:20;;;;;;;8.33;1.70;;;;;;;-145.18;100.00;46883.09;5047164;28;20033;-88
2023/12/29 04:57:46;;;;;;;15.80;2.37;;;;;;;-145.18;100.00;46887.00;5052141;28;20473;-88
2023/12/29 05:00:12;;;;;;;17.97;3.03;;;;;;;-145.18;100.00;46887.00;5049756;28;20158;-88
2023/12/29 05:02:37;;;;;;;16.83;2.90;;;;;;;-145.18;100.00;46883.09;5051964;28;20051;-88
2023/12/29 05:05:03;;;;;;;18.47;3.17;;;;;;;-145.18;100.00;46879.19;5057315;28;20064;-88
2023/12/29 05:07:28;;;;;;;16.33;2.23;;;;;;;-145.18;100.00;46883.09;5049833;28;20397;-88
2023/12/29 05:09:53;;;;;;;20.37;2.17;;;;;;;-145.18;100.00;46883.09;5040679;28;20481;-88
2023/12/29 05:12:19;;;;;;;17.03;2.10;;;;;;;-145.18;100.00;46885.03;5048262;28;20116;-88
2023/12/29 05:14:44;;;;;;;14.47;2.50;;;;;;;-145.18;100.00;46887.00;5053505;28;20512;-88
2023/12/29 05:17:09;;;;;;;14.77;2.67;;;;;;;-145.18;100.00;46885.03;5048776;28;20056;-87
2023/12/29 05:19:35;;;;;;;9.80;1.83;;;;;;;-145.18;100.00;46888.94;5053454;28;20032;-88
2023/12/29 05:22:00;;;;;;;14.93;2.40;;;;;;;-145.18;100.00;46885.03;5047400;28;20029;-88
2023/12/29 05:24:26;;;;;;;14.03;2.50;;;;;;;-145.18;100.00;46888.94;5042011;28;20363;-88
2023/12/29 05:26:51;;;;;;;14.80;1.93;;;;;;;-145.18;100.00;46888.94;5052837;28;20029;-87
2023/12/29 05:29:16;;;;;;;23.67;3.83;;;;;;;-145.18;100.00;46885.03;5052384;28;20480;-88
2023/12/29 05:31:42;;;;;;;18.37;2.40;;;;;;;-145.18;100.00;46894.81;5052434;28;20044;-88
2023/12/29 05:34:07;;;;;;;16.07;3.10;;;;;;;-145.18;100.00;46887.00;5048790;28;20135;-88
2023/12/29 05:36:35;;;;;;;16.37;2.60;;;;;;;-145.18;100.00;46894.81;5069223;28;20033;-88
2023/12/29 05:39:01;;;;;;;13.10;2.80;;;;;;;-145.18;100.00;46894.81;5053765;28;20029;-88
2023/12/29 05:41:26;;;;;;;16.53;2.57;;;;;;;-145.18;100.00;46887.00;5052582;28;20074;-89
2023/12/29 05:43:52;;;;;;;21.03;2.83;;;;;;;-145.18;100.00;46883.09;5053190;28;20028;-88
2023/12/29 05:46:17;;;;;;;14.30;3.50;;;;;;;-145.18;100.00;46881.13;5053955;28;20017;-90
2023/12/29 05:48:42;;;;;;;23.83;3.13;;;;;;;-145.18;100.00;46887.00;5052512;28;20493;-89
2023/12/29 05:51:09;;;;;;;20.40;2.47;;;;;;;-145.18;100.00;46885.03;5049757;28;20029;-89
2023/12/29 05:53:35;;;;;;;14.50;2.90;;;;;;;-145.18;100.00;46885.03;5033480;28;20034;-89
2023/12/29 05:56:00;;;;;;;18.97;2.57;;;;;;;-145.18;100.00;46890.91;5035213;28;20036;-88
2023/12/29 05:58:26;;;;;;;14.23;1.90;;;;;;;-145.18;100.00;46888.94;5035198;28;20061;-88
2023/12/29 06:00:51;;;;;;;16.27;2.70;;;;;;;-145.18;100.00;46890.91;5053450;28;20025;-90
2023/12/29 06:03:16;;;;;;;16.67;3.37;;;;;;;-145.18;100.00;46892.84;5053049;28;20028;-89
2023/12/29 06:05:42;;;;;;;16.10;2.30;;;;;;;-145.18;100.00;46894.81;5053582;28;20396;-89
2023/12/29 06:08:07;;;;;;;15.27;2.03;;;;;;;-145.18;100.00;46902.63;5049805;28;20049;-82
2023/12/29 06:10:35;;;;;;;12.27;2.30;;;;;;;-145.18;100.00;46894.81;5049224;28;20041;-83
2023/12/29 06:13:02;;;;;;;11.17;2.13;;;;;;;-145.18;100.00;46894.81;5048981;28;20049;-83
2023/12/29 06:15:28;;;;;;;19.73;3.17;;;;;;;-145.18;100.00;46894.81;5048999;28;20362;-83
2023/12/29 06:17:53;;;;;;;15.87;3.03;;;;;;;-145.18;100.00;46894.81;5033490;28;20143;-82
2023/12/29 06:20:20;;;;;;;10.13;1.97;;;;;;;-145.18;100.00;46898.72;5047616;28;20067;-84
2023/12/29 06:22:45;;;;;;;13.97;2.77;;;;;;;-145.18;100.00;46908.47;5046236;28;20034;-81
2023/12/29 06:25:11;;;;;;;13.03;2.70;;;;;;;-145.18;100.00;46918.25;5040817;28;20037;-81
2023/12/29 06:27:38;;;;;;;10.60;2.77;;;;;;;-145.18;100.00;46933.88;5050729;28;20043;-80
2023/12/29 06:30:05;;;;;;;8.57;2.23;;;;;;;-145.18;100.00;46939.72;5044319;28;20060;-78
2023/12/29 06:32:31;;;;;;;8.47;1.80;;;;;;;-145.18;100.00;46947.53;5036550;28;20041;-79
2023/12/29 06:34:56;;;;;;;14.80;2.67;;;;;;;-145.18;100.00;46959.25;5049331;28;20535;-78
2023/12/29 06:37:22;;;;;;;12.73;2.47;;;;;;;-145.18;100.00;46967.09;5048928;28;20136;-78
2023/12/29 06:39:47;;;;;;;9.10;2.60;;;;;;;-145.18;100.00;46976.84;5047261;28;20032;-78
2023/12/29 06:42:12;;;;;;;13.50;2.40;;;;;;;-145.18;100.00;46980.75;5047099;28;20036;-79
2023/12/29 06:44:38;;;;;;;12.03;2.30;;;;;;;-145.18;100.00;46990.53;5048994;28;20526;-79
2023/12/29 06:47:05;;;;;;;16.20;2.83;;;;;;;-145.18;100.00;46990.53;5050345;28;20078;-77
2023/12/29 06:49:31;;;;;;;11.93;1.90;;;;;;;-145.18;100.00;46998.34;5047503;28;20112;-78
2023/12/29 06:51:57;;;;;;;11.83;2.57;;;;;;;-145.18;100.00;46994.44;5048648;28;20362;-79
2023/12/29 06:54:22;;;;;;;11.07;2.37;;;;;;;-145.18;100.00;47006.16;5037052;28;20473;-78
2023/12/29 06:56:48;;;;;;;12.00;2.70;;;;;;;-145.18;100.00;47008.09;5050234;28;20033;-78
2023/12/29 06:59:14;;;;;;;12.30;2.80;;;;;;;-145.18;100.00;47008.09;5045071;28;20040;-78
2023/12/29 07:01:40;;;;;;;15.17;2.87;;;;;;;-145.18;100.00;47012.00;5045193;28;20036;-79
2023/12/29 07:04:09;;;;;;;14.80;2.80;;;;;;;-145.18;100.00;47015.91;5043784;28;20477;-78
2023/12/29 07:06:35;;;;;;;12.47;2.47;;;;;;;-145.18;100.00;47015.91;5038288;28;20658;-80
2023/12/29 07:09:01;;;;;;;12.93;2.90;;;;;;;-145.18;100.00;47019.81;5049786;28;20294;-80
2023/12/29 07:11:27;;;;;;;14.07;2.60;;;;;;;-145.18;100.00;47023.72;5042592;28;20033;-80
2023/12/29 07:13:52;;;;;;;18.23;2.50;;;;;;;-145.18;100.00;47021.78;5044646;28;20086;-79
2023/12/29 07:16:19;;;;;;;10.53;2.20;;;;;;;-145.18;100.00;47021.78;5048704;28;20285;-81
2023/12/29 07:18:45;;;;;;;9.47;2.87;;;;;;;-145.18;100.00;47019.81;5047425;28;20115;-81
2023/12/29 07:21:12;;;;;;;12.00;2.47;;;;;;;-145.18;100.00;47017.88;5054290;28;20359;-81
2023/12/29 07:23:37;;;;;;;12.53;1.90;;;;;;;-145.18;100.00;47017.88;5053742;28;20029;-80
2023/12/29 07:26:03;;;;;;;8.07;2.33;;;;;;;-145.18;100.00;47015.91;5053683;28;20421;-82
2023/12/29 07:28:28;;;;;;;11.13;2.43;;;;;;;-145.18;100.00;47013.97;5053363;28;20489;-81
2023/12/29 07:30:54;;;;;;;8.50;2.00;;;;;;;-145.18;100.00;47006.16;5036677;28;20112;-81
2023/12/29 07:33:19;;;;;;;6.70;2.10;;;;;;;-145.18;100.00;46996.38;5044169;28;20041;-81
2023/12/29 07:35:45;;;;;;;8.93;1.93;;;;;;;-145.18;100.00;46998.34;5040073;28;20637;-76
2023/12/29 07:38:10;;;;;;;6.53;2.07;;;;;;;-145.18;100.00;46996.38;5040371;28;20160;-81
2023/12/29 07:40:35;;;;;;;6.13;2.30;;;;;;;-145.18;100.00;46992.47;5041386;28;20037;-80
2023/12/29 07:43:01;;;;;;;9.63;2.40;;;;;;;-145.18;100.00;46988.56;5041827;28;20041;-77
2023/12/29 07:45:26;;;;;;;13.33;2.90;;;;;;;-145.18;100.00;46988.56;5039207;28;20040;-81
2023/12/29 07:47:52;;;;;;;6.47;1.87;;;;;;;-145.18;100.00;46984.66;5041711;28;20047;-78
2023/12/29 07:50:17;;;;;;;6.43;2.00;;;;;;;-145.18;100.00;46984.66;5057331;28;20041;-79
2023/12/29 07:52:44;;;;;;;9.30;1.80;;;;;;;-145.18;100.00;46980.75;5040222;28;20044;-79
2023/12/29 07:55:09;;;;;;;11.57;2.83;;;;;;;-145.18;100.00;46972.94;5041267;28;20043;-81
2023/12/29 07:57:35;;;;;;;7.47;1.60;;;;;;;-145.18;100.00;46967.09;5040730;28;20618;-81
2023/12/29 08:00:02;;;;;;;7.03;1.87;;;;;;;-145.18;100.00;46969.03;5041928;28;20040;-81
2023/12/29 08:02:27;;;;;;;5.77;1.40;;;;;;;-145.18;100.00;46969.03;5039924;28;20049;-81
2023/12/29 08:04:55;;;;;;;8.03;1.87;;;;;;;-145.18;100.00;46963.19;5039899;28;20044;-81
2023/12/29 08:07:20;;;;;;;8.47;1.53;;;;;;;-145.18;100.00;46957.31;5040695;28;20513;-81
2023/12/29 08:09:45;;;;;;;6.97;1.60;;;;;;;-145.18;100.00;46963.19;5039589;28;20049;-81
2023/12/29 08:12:11;;;;;;;7.87;1.60;;;;;;;-145.18;100.00;46955.34;5041118;28;20037;-82
2023/12/29 08:14:36;;;;;;;10.70;1.70;;;;;;;-145.18;100.00;46953.41;5041746;28;20029;-82
2023/12/29 08:17:01;;;;;;;5.23;1.40;;;;;;;-145.18;100.00;46951.44;5039738;28;20155;-81
2023/12/29 08:19:27;;;;;;;4.87;1.30;;;;;;;-145.18;100.00;46949.50;5040282;28;20079;-80
2023/12/29 08:21:52;;;;;;;6.50;2.20;;;;;;;-145.18;100.00;46949.50;5051888;28;20041;-80
2023/12/29 08:24:20;;;;;;;5.07;1.63;;;;;;;-145.18;100.00;46945.59;5047625;28;20131;-81
2023/12/29 08:26:46;;;;;;;8.00;1.50;;;;;;;-145.18;100.00;46951.44;5044201;28;20108;-81
2023/12/29 08:29:13;;;;;;;7.87;1.63;;;;;;;-145.18;100.00;46941.69;5038361;28;20030;-80
2023/12/29 08:31:39;;;;;;;5.47;1.30;;;;;;;-145.18;100.00;46941.69;5037059;28;20041;-80
2023/12/29 08:34:04;;;;;;;5.00;1.60;;;;;;;-145.18;100.00;46933.88;5066113;28;20013;-82
2023/12/29 08:36:29;;;;;;;4.57;1.20;;;;;;;-145.18;100.00;46929.97;5049855;28;20037;-81
2023/12/29 08:38:56;;;;;;;5.37;1.27;;;;;;;-145.18;100.00;46933.88;5043470;28;20125;-81
2023/12/29 08:41:22;;;;;;;5.93;1.20;;;;;;;-145.18;100.00;46931.91;5042361;28;20036;-81
2023/12/29 08:43:47;;;;;;;8.67;2.63;;;;;;;-145.18;100.00;46931.91;5057095;28;20028;-81
2023/12/29 08:46:13;;;;;;;6.20;1.43;;;;;;;-145.18;100.00;46926.06;5063628;28;20474;-81
2023/12/29 08:48:38;;;;;;;5.03;1.47;;;;;;;-145.18;100.00;46924.09;5037719;28;20099;-81
2023/12/29 08:51:03;;;;;;;8.23;2.13;;;;;;;-145.18;100.00;46922.16;5041566;28;20099;-81
2023/12/29 08:53:33;;;;;;;8.33;1.83;;;;;;;-145.18;100.00;46922.16;5041073;28;20033;-81
2023/12/29 08:55:58;;;;;;;9.03;1.47;;;;;;;-145.18;100.00;46926.06;5032584;28;20057;-81
2023/12/29 08:58:24;;;;;;;7.60;1.37;;;;;;;-145.18;100.00;46929.97;5037803;28;20032;-79
2023/12/29 09:00:49;;;;;;;9.30;1.87;;;;;;;-145.18;100.00;46931.91;5038000;28;20502;-81
2023/12/29 09:03:15;;;;;;;4.63;1.23;;;;;;;-145.18;100.00;46922.16;5039640;28;20029;-82
2023/12/29 09:05:40;;;;;;;9.80;2.20;;;;;;;-145.18;100.00;46929.97;5040892;28;20033;-81
2023/12/29 09:08:05;;;;;;;11.27;1.10;;;;;;;-145.18;100.00;46924.09;5029098;28;20513;-86
2023/12/29 09:10:31;;;;;;;7.73;1.37;;;;;;;-145.18;100.00;46922.16;5059741;28;20032;-86
2023/12/29 09:12:56;;;;;;;10.27;1.70;;;;;;;-145.18;100.00;46918.25;5044602;28;20105;-86
2023/12/29 09:15:22;;;;;;;5.67;0.90;;;;;;;-145.18;100.00;46918.25;5048492;28;20038;-85
2023/12/29 09:17:48;;;;;;;5.80;1.40;;;;;;;-145.18;100.00;46922.16;5044512;28;20076;-86
2023/12/29 09:20:14;;;;;;;8.83;1.63;;;;;;;-145.18;100.00;46918.25;5049826;28;20437;-86
2023/12/29 09:22:40;;;;;;;5.43;1.40;;;;;;;-145.18;100.00;46920.19;5045999;28;20048;-85
2023/12/29 09:25:05;;;;;;;9.00;1.43;;;;;;;-145.18;100.00;46922.16;5043812;28;20017;-86
2023/12/29 09:27:31;;;;;;;8.77;1.10;;;;;;;-145.18;100.00;46920.19;5044295;28;20397;-85
2023/12/29 09:29:56;;;;;;;8.67;1.83;;;;;;;-145.18;100.00;46918.25;5050269;28;20032;-85
2023/12/29 09:32:22;;;;;;;3.43;1.43;;;;;;;-145.18;100.00;46920.19;5051796;28;20051;-85
2023/12/29 09:34:47;;;;;;;5.13;0.90;;;;;;;-145.18;100.00;46916.28;5049374;28;20111;-89
2023/12/29 09:37:12;;;;;;;5.63;0.70;;;;;;;-145.18;100.00;46916.28;5047770;28;20020;-85
2023/12/29 09:39:38;;;;;;;3.67;1.13;;;;;;;-145.18;100.00;46916.28;5037513;28;20037;-85
2023/12/29 09:42:03;;;;;;;2.80;0.87;;;;;;;-145.18;100.00;46916.28;5042448;28;20154;-84
2023/12/29 09:44:31;;;;;;;7.27;1.20;;;;;;;-145.18;100.00;46914.34;5039498;28;20094;-85
2023/12/29 09:47:01;;;;;;;3.23;0.53;;;;;;;-145.18;100.00;46914.34;5051977;28;20032;-85
2023/12/29 09:49:30;;;;;;;4.00;0.70;;;;;;;-145.18;100.00;46918.25;5049038;28;20037;-85
2023/12/29 09:51:57;;;;;;;4.00;0.80;;;;;;;-145.18;100.00;46914.34;5046587;28;20039;-84
2023/12/29 09:54:23;;;;;;;3.13;0.67;;;;;;;-145.18;100.00;46910.44;5034319;28;20041;-85
2023/12/29 09:56:50;;;;;;;3.87;0.83;;;;;;;-145.18;100.00;46914.34;5045353;28;20025;-84
2023/12/29 09:59:16;;;;;;;3.70;0.90;;;;;;;-145.18;100.00;46910.44;5044496;28;20390;-85
2023/12/29 10:01:44;;;;;;;3.37;1.37;;;;;;;-145.18;100.00;46912.38;5039913;28;20029;-85
2023/12/29 10:04:11;;;;;;;4.17;1.03;;;;;;;-145.18;100.00;46914.34;5044110;28;20404;-85
2023/12/29 10:06:41;;;;;;;4.87;1.00;;;;;;;-145.18;100.00;46910.44;5040635;28;20497;-85
2023/12/29 10:09:11;;;;;;;5.57;0.80;;;;;;;-145.18;100.00;46910.44;5039317;28;20033;-85
2023/12/29 10:11:37;;;;;;;3.80;0.70;;;;;;;-145.18;100.00;46912.38;5040690;28;20059;-85
2023/12/29 10:14:18;;;;;;;4.67;0.83;;;;;;;-145.18;100.00;46914.34;5039969;28;20120;-85
2023/12/29 10:16:49;;;;;;;5.63;1.30;;;;;;;-145.18;100.00;46910.44;5046468;28;20468;-81
2023/12/29 10:19:30;;;;;;;5.83;1.33;;;;;;;-145.18;100.00;46904.56;5051211;28;20032;-82
2023/12/29 10:22:03;;;;;;;3.50;1.00;;;;;;;-145.18;100.00;46902.63;5046005;28;20154;-82
2023/12/29 10:24:29;;;;;;;7.33;0.83;;;;;;;-145.18;100.00;46896.75;5049421;28;20056;-82
2023/12/29 10:26:55;;;;;;;4.87;1.40;;;;;;;-145.18;100.00;46896.75;5046123;28;20109;-82
2023/12/29 10:29:21;;;;;;;6.77;1.27;;;;;;;-145.18;100.00;46896.75;5046996;28;20166;-82
2023/12/29 10:31:47;;;;;;;5.40;1.03;;;;;;;-145.18;100.00;46890.91;5049066;28;20104;-82
2023/12/29 10:34:28;;;;;;;4.40;1.00;;;;;;;-145.18;100.00;46894.81;5048958;28;20105;-82
2023/12/29 10:36:55;;;;;;;4.80;1.27;;;;;;;-145.18;100.00;46892.84;5047633;28;20017;-81
2023/12/29 10:39:20;;;;;;;5.17;1.37;;;;;;;-145.18;100.00;46890.91;5046971;28;20493;-82
2023/12/29 10:41:46;;;;;;;10.97;1.30;;;;;;;-145.18;100.00;46894.81;5064710;28;20057;-82
2023/12/29 10:44:11;;;;;;;5.03;1.30;;;;;;;-145.18;100.00;46888.94;5049853;28;20087;-83
2023/12/29 10:46:36;;;;;;;3.07;1.07;;;;;;;-145.18;100.00;46890.91;5057044;28;20036;-82
2023/12/29 10:49:13;;;;;;;6.53;1.10;;;;;;;-145.18;100.00;46887.00;5058304;28;20021;-82
2023/12/29 10:51:39;;;;;;;5.20;0.90;;;;;;;-145.18;100.00;46881.13;5047854;28;20487;-87
2023/12/29 10:54:05;;;;;;;8.30;1.07;;;;;;;-145.18;100.00;46888.94;5049172;28;20124;-90
2023/12/29 10:56:32;;;;;;;3.00;1.00;;;;;;;-145.18;100.00;46883.09;5054347;28;20523;-82
2023/12/29 10:59:05;;;;;;;7.13;1.00;;;;;;;-145.18;100.00;46879.19;5058173;28;20045;-82